Time;durP1;ratioP1;P1;durP2;ratioP2;P2;SDS_P1;SDS_P2;PMS_P1;PMS_P2;Temp;Humidity;BMP_temperature;BMP_pressure;BME280_temperature;BME280_humidity;BME280_pressure;Samples;Min_cycle;Max_cycle;Signal;HPM_P1;HPM_P2
2024/04/13 00:00:11;;;;;;;6.80;3.90;;;16.80;99.90;;;;;;5304533;26;20594;-69
2024/04/13 00:02:41;;;;;;;5.10;3.83;;;16.80;99.90;;;;;;5309891;26;20827;-71
2024/04/13 00:05:10;;;;;;;9.57;4.70;;;16.60;99.90;;;;;;5309817;26;20561;-70
2024/04/13 00:07:40;;;;;;;7.67;3.87;;;16.60;99.90;;;;;;5306671;26;20502;-70
2024/04/13 00:10:07;;;;;;;6.20;4.67;;;16.80;99.90;;;;;;5307381;26;20595;-70
2024/04/13 00:12:38;;;;;;;5.23;4.10;;;16.80;99.90;;;;;;5309347;26;20818;-70
2024/04/13 00:15:04;;;;;;;6.43;4.40;;;16.80;99.90;;;;;;5315181;26;20484;-73
2024/04/13 00:17:33;;;;;;;6.40;4.57;;;16.70;99.90;;;;;;5312943;26;21162;-73
2024/04/13 00:19:59;;;;;;;9.53;4.50;;;16.70;99.90;;;;;;5319047;26;20484;-73
2024/04/13 00:22:27;;;;;;;6.50;5.20;;;16.70;99.90;;;;;;5304101;26;20540;-73
2024/04/13 00:24:53;;;;;;;7.93;4.73;;;16.60;99.90;;;;;;5315731;26;20881;-73
2024/04/13 00:27:23;;;;;;;9.70;4.83;;;16.60;99.90;;;;;;5317439;26;20607;-73
2024/04/13 00:29:51;;;;;;;5.13;4.20;;;16.60;99.90;;;;;;5322776;26;20243;-73
2024/04/13 00:32:19;;;;;;;5.53;3.83;;;16.60;99.90;;;;;;5323781;26;21187;-74
2024/04/13 00:34:47;;;;;;;10.70;5.83;;;16.60;99.90;;;;;;5313341;26;20699;-73
2024/04/13 00:37:15;;;;;;;9.80;5.77;;;16.40;99.90;;;;;;5293346;26;20479;-73
2024/04/13 00:39:41;;;;;;;9.10;5.17;;;16.40;99.90;;;;;;5303234;26;20584;-73
2024/04/13 00:42:10;;;;;;;12.37;4.90;;;16.40;99.90;;;;;;5306330;26;21079;-73
2024/04/13 00:44:36;;;;;;;5.10;4.30;;;16.40;99.90;;;;;;5316613;26;20674;-73
2024/04/13 00:47:09;;;;;;;5.00;4.50;;;16.40;99.90;;;;;;5314181;26;20489;-73
2024/04/13 00:49:37;;;;;;;6.27;4.67;;;16.40;99.90;;;;;;5313474;26;20652;-73
2024/04/13 00:52:09;;;;;;;1.00;0.60;;;16.40;99.90;;;;;;5308111;26;21143;-73
2024/04/13 00:54:36;;;;;;;1.00;0.60;;;16.40;99.90;;;;;;5314570;26;20473;-73
2024/04/13 00:57:07;;;;;;;1.00;0.60;;;16.40;99.90;;;;;;5306135;26;20613;-73
2024/04/13 00:59:34;;;;;;;1.00;0.60;;;16.50;99.90;;;;;;5311885;26;20854;-73
2024/04/13 01:02:10;;;;;;;1.00;0.60;;;16.50;99.90;;;;;;5312397;26;20493;-73
2024/04/13 01:04:37;;;;;;;0.90;0.60;;;16.40;99.90;;;;;;5321731;26;20543;-73
2024/04/13 01:07:06;;;;;;;0.97;0.60;;;16.40;99.90;;;;;;5307560;26;21066;-73
2024/04/13 01:09:31;;;;;;;1.00;0.60;;;16.30;99.90;;;;;;5316514;26;20490;-73
2024/04/13 01:12:00;;;;;;;1.00;0.60;;;16.20;99.90;;;;;;5303119;26;20696;-73
2024/04/13 01:14:26;;;;;;;6.83;3.80;;;16.10;99.90;;;;;;5313639;26;20236;-73
2024/04/13 01:16:54;;;;;;;6.83;3.70;;;16.10;99.90;;;;;;5309161;26;20693;-73
2024/04/13 01:19:23;;;;;;;4.83;4.00;;;16.00;99.90;;;;;;5304048;26;20327;-73
2024/04/13 01:21:51;;;;;;;4.40;3.80;;;16.10;99.90;;;;;;5306439;26;20532;-73
2024/04/13 01:24:21;;;;;;;8.90;5.10;;;16.10;99.90;;;;;;5302543;26;20483;-73
2024/04/13 01:26:51;;;;;;;5.60;4.10;;;16.10;99.90;;;;;;5306252;26;20685;-73
2024/04/13 01:29:17;;;;;;;5.70;3.77;;;16.10;99.90;;;;;;5315526;26;20475;-73
2024/04/13 01:31:45;;;;;;;5.80;4.50;;;16.00;99.90;;;;;;5313122;26;20720;-73
2024/04/13 01:34:11;;;;;;;6.23;4.50;;;16.00;99.90;;;;;;5297282;26;20387;-73
2024/04/13 01:36:40;;;;;;;6.40;4.03;;;16.00;99.90;;;;;;5309899;26;20554;-73
2024/04/13 01:39:08;;;;;;;10.37;4.53;;;16.10;99.90;;;;;;5321946;26;20308;-73
2024/04/13 01:41:41;;;;;;;8.03;4.20;;;16.10;99.90;;;;;;5301792;26;20574;-73
2024/04/13 01:44:07;;;;;;;7.30;3.60;;;16.00;99.90;;;;;;5307953;26;20534;-73
2024/04/13 01:46:37;;;;;;;7.10;4.47;;;16.00;99.90;;;;;;5306599;26;20634;-73
2024/04/13 01:49:03;;;;;;;6.87;4.33;;;16.00;99.90;;;;;;5310596;26;20240;-73
2024/04/13 01:51:35;;;;;;;6.17;4.10;;;16.00;99.90;;;;;;5310015;26;20500;-73
2024/04/13 01:54:01;;;;;;;5.40;4.00;;;16.00;99.90;;;;;;5304937;26;20536;-73
2024/04/13 01:56:30;;;;;;;11.10;5.47;;;16.10;99.90;;;;;;5299817;26;20533;-73
2024/04/13 01:58:58;;;;;;;6.93;4.03;;;16.20;99.90;;;;;;5306319;26;20803;-73
2024/04/13 02:01:27;;;;;;;4.50;3.73;;;16.20;99.90;;;;;;5310642;26;20525;-73
2024/04/13 02:03:53;;;;;;;5.63;4.20;;;16.20;99.90;;;;;;5313929;26;20528;-73
2024/04/13 02:06:21;;;;;;;8.47;4.30;;;16.20;99.90;;;;;;5310810;26;20539;-73
2024/04/13 02:08:47;;;;;;;7.13;3.30;;;16.10;99.90;;;;;;5308013;26;20254;-73
2024/04/13 02:11:16;;;;;;;5.20;3.90;;;16.10;99.90;;;;;;5307191;26;20835;-72
2024/04/13 02:13:42;;;;;;;7.60;4.10;;;16.10;99.90;;;;;;5302945;26;20283;-73
2024/04/13 02:16:13;;;;;;;19.03;5.60;;;16.00;99.90;;;;;;5313242;26;20476;-73
2024/04/13 02:18:39;;;;;;;9.50;4.67;;;16.00;99.90;;;;;;5302390;26;20485;-72
2024/04/13 02:21:08;;;;;;;5.37;4.80;;;16.10;99.90;;;;;;5302850;26;20479;-72
2024/04/13 02:23:35;;;;;;;3.77;3.13;;;16.10;99.90;;;;;;5320422;26;20245;-72
2024/04/13 02:26:04;;;;;;;5.00;4.10;;;16.10;99.90;;;;;;5305641;26;20600;-73
2024/04/13 02:28:30;;;;;;;8.33;4.07;;;16.00;99.90;;;;;;5316800;26;20495;-73
2024/04/13 02:31:00;;;;;;;6.93;4.10;;;16.10;99.90;;;;;;5313545;26;20490;-73
2024/04/13 02:33:29;;;;;;;4.10;3.60;;;16.10;99.90;;;;;;5308702;26;20315;-73
2024/04/13 02:36:01;;;;;;;5.37;3.20;;;16.00;99.90;;;;;;5324156;26;20455;-73
2024/04/13 02:38:27;;;;;;;4.07;3.27;;;16.00;99.90;;;;;;5305812;26;20475;-73
2024/04/13 02:40:59;;;;;;;4.53;3.03;;;16.00;99.90;;;;;;5326690;26;20466;-73
2024/04/13 02:43:25;;;;;;;4.77;3.10;;;16.00;99.90;;;;;;5293444;26;20339;-73
2024/04/13 02:45:54;;;;;;;5.93;3.30;;;15.90;99.90;;;;;;5308275;26;20531;-73
2024/04/13 02:48:20;;;;;;;6.97;3.70;;;15.90;99.90;;;;;;5307356;26;20545;-73
2024/04/13 02:50:52;;;;;;;5.80;3.67;;;15.90;99.90;;;;;;5312752;26;20471;-73
2024/04/13 02:53:18;;;;;;;6.40;3.80;;;15.90;99.90;;;;;;5311674;26;20587;-73
2024/04/13 02:55:47;;;;;;;6.50;3.63;;;15.90;99.90;;;;;;5320037;26;20531;-74
2024/04/13 02:58:13;;;;;;;5.07;3.60;;;15.90;99.90;;;;;;5305604;26;21144;-73
2024/04/13 03:00:41;;;;;;;9.50;4.40;;;15.90;99.90;;;;;;5317888;26;20579;-73
2024/04/13 03:03:07;;;;;;;3.77;3.20;;;15.90;99.90;;;;;;5310778;26;20504;-73
2024/04/13 03:05:35;;;;;;;7.40;3.23;;;15.90;99.90;;;;;;5314009;26;20748;-73
2024/04/13 03:08:05;;;;;;;5.70;3.40;;;15.90;99.90;;;;;;5312591;26;20636;-73
2024/04/13 03:10:34;;;;;;;5.27;4.20;;;15.90;99.90;;;;;;5312886;26;20530;-73
2024/04/13 03:13:00;;;;;;;4.27;3.23;;;15.90;99.90;;;;;;5311899;26;20511;-72
2024/04/13 03:15:28;;;;;;;4.90;3.63;;;15.90;99.90;;;;;;5304081;26;20525;-72
2024/04/13 03:17:54;;;;;;;9.87;4.27;;;15.90;99.90;;;;;;5310865;26;20590;-73
2024/04/13 03:20:23;;;;;;;4.53;3.87;;;15.80;99.90;;;;;;5310660;26;20627;-73
2024/04/13 03:22:49;;;;;;;8.33;4.10;;;15.80;99.90;;;;;;5304267;26;20534;-74
2024/04/13 03:25:20;;;;;;;11.27;4.13;;;15.80;99.90;;;;;;5305007;26;20843;-73
2024/04/13 03:27:46;;;;;;;5.90;3.60;;;15.80;99.90;;;;;;5309471;26;20291;-73
2024/04/13 03:30:16;;;;;;;4.97;3.90;;;15.70;99.90;;;;;;5308486;26;20480;-72
2024/04/13 03:32:42;;;;;;;5.97;3.50;;;15.80;99.90;;;;;;5314436;26;20294;-73
2024/04/13 03:35:11;;;;;;;4.33;3.53;;;15.70;99.90;;;;;;5311708;26;21916;-73
2024/04/13 03:37:37;;;;;;;4.30;3.40;;;15.70;99.90;;;;;;5308083;26;20971;-73
2024/04/13 03:40:07;;;;;;;5.10;3.87;;;15.60;99.90;;;;;;5315683;26;20464;-73
2024/04/13 03:42:43;;;;;;;9.87;4.10;;;15.50;99.90;;;;;;5310362;26;20249;-73
2024/04/13 03:45:12;;;;;;;6.13;4.40;;;15.60;99.90;;;;;;5312279;26;20621;-72
2024/04/13 03:47:38;;;;;;;5.93;4.30;;;15.60;99.90;;;;;;5323422;26;20476;-72
2024/04/13 03:50:07;;;;;;;5.17;3.33;;;15.60;99.90;;;;;;5316602;26;20997;-72
2024/04/13 03:52:33;;;;;;;7.37;4.23;;;15.60;99.90;;;;;;5306641;26;22131;-72
2024/04/13 03:55:01;;;;;;;9.20;3.83;;;15.60;99.90;;;;;;5314588;26;20550;-72
2024/04/13 03:57:27;;;;;;;10.13;4.50;;;15.60;99.90;;;;;;5305975;26;20591;-72
2024/04/13 03:59:58;;;;;;;4.90;3.93;;;15.60;99.90;;;;;;5314491;26;20496;-72
2024/04/13 04:02:24;;;;;;;10.23;4.37;;;15.50;99.90;;;;;;5322656;26;20256;-73
2024/04/13 04:04:52;;;;;;;8.80;4.20;;;15.50;99.90;;;;;;5308991;26;20789;-73
2024/04/13 04:07:18;;;;;;;5.30;4.13;;;15.60;99.90;;;;;;5320910;26;20705;-72
2024/04/13 04:09:49;;;;;;;6.77;4.10;;;15.50;99.90;;;;;;5325809;26;20504;-72
2024/04/13 04:12:16;;;;;;;6.27;4.27;;;15.40;99.90;;;;;;5310576;26;20270;-73
2024/04/13 04:14:44;;;;;;;11.33;4.50;;;15.50;99.90;;;;;;5314240;26;21386;-73
2024/04/13 04:17:13;;;;;;;4.90;3.27;;;15.40;99.90;;;;;;5317303;26;20623;-74
2024/04/13 04:19:41;;;;;;;7.50;4.50;;;15.40;99.90;;;;;;5310367;26;20480;-73
2024/04/13 04:22:07;;;;;;;7.97;4.13;;;15.60;99.90;;;;;;5319520;26;20483;-73
2024/04/13 04:24:37;;;;;;;6.43;4.50;;;15.40;99.90;;;;;;5310654;26;20523;-74
2024/04/13 04:27:05;;;;;;;8.37;7.40;;;15.50;99.90;;;;;;5306713;26;20246;-74
2024/04/13 04:29:33;;;;;;;6.90;4.30;;;15.50;99.90;;;;;;5312819;26;21028;-74
2024/04/13 04:31:59;;;;;;;6.63;4.27;;;15.50;99.90;;;;;;5310305;26;20486;-73
2024/04/13 04:34:30;;;;;;;8.53;5.40;;;15.40;99.90;;;;;;5315228;26;20524;-73
2024/04/13 04:36:56;;;;;;;5.53;4.23;;;15.30;99.90;;;;;;5304899;26;20248;-73
2024/04/13 04:39:25;;;;;;;9.90;5.63;;;15.30;99.90;;;;;;5314675;26;20626;-74
2024/04/13 04:41:51;;;;;;;3.60;2.57;;;15.40;99.90;;;;;;5297453;26;20258;-72
2024/04/13 04:44:19;;;;;;;7.50;4.57;;;15.40;99.90;;;;;;5306939;26;20484;-74
2024/04/13 04:46:45;;;;;;;5.70;4.10;;;15.30;99.90;;;;;;5319126;26;20491;-73
2024/04/13 04:49:13;;;;;;;7.03;4.50;;;15.30;99.90;;;;;;5323000;26;20473;-73
2024/04/13 04:51:42;;;;;;;6.00;4.20;;;15.40;99.90;;;;;;5321633;26;20265;-74
2024/04/13 04:54:10;;;;;;;18.10;6.10;;;15.30;99.90;;;;;;5323422;26;20452;-74
2024/04/13 04:56:36;;;;;;;7.50;5.07;;;15.40;99.90;;;;;;5317029;26;20481;-74
2024/04/13 04:59:05;;;;;;;6.03;4.17;;;15.30;99.90;;;;;;5314267;26;20538;-74
2024/04/13 05:01:30;;;;;;;11.17;6.30;;;15.30;99.90;;;;;;5319183;26;20346;-73
2024/04/13 05:03:59;;;;;;;5.33;3.80;;;15.40;99.90;;;;;;5326988;26;20899;-74
2024/04/13 05:06:25;;;;;;;5.70;5.07;;;15.40;99.90;;;;;;5319039;26;20286;-73
2024/04/13 05:08:56;;;;;;;6.63;4.70;;;15.40;99.90;;;;;;5324273;26;21003;-73
2024/04/13 05:11:21;;;;;;;5.90;4.40;;;15.40;99.90;;;;;;5314736;26;20253;-73
2024/04/13 05:13:50;;;;;;;5.03;3.67;;;15.50;99.90;;;;;;5319320;26;20583;-73
2024/04/13 05:16:16;;;;;;;6.97;4.40;;;15.50;99.90;;;;;;5321160;26;20257;-73
2024/04/13 05:18:44;;;;;;;9.23;4.43;;;15.70;99.90;;;;;;5311850;26;20487;-73
2024/04/13 05:21:10;;;;;;;4.60;4.17;;;15.60;99.90;;;;;;5319838;26;20485;-73
2024/04/13 05:23:39;;;;;;;4.67;3.80;;;15.60;99.90;;;;;;5313574;26;20528;-73
2024/04/13 05:26:07;;;;;;;7.20;4.40;;;15.70;99.90;;;;;;5319155;26;20293;-74
2024/04/13 05:28:36;;;;;;;4.77;4.30;;;15.90;99.90;;;;;;5315334;26;20532;-74
2024/04/13 05:31:08;;;;;;;5.93;3.90;;;15.90;99.90;;;;;;5311796;26;20622;-74
2024/04/13 05:33:38;;;;;;;6.60;4.60;;;15.90;99.90;;;;;;5310874;26;20976;-73
2024/04/13 05:36:05;;;;;;;17.00;4.40;;;15.90;99.90;;;;;;5323864;26;20835;-73
2024/04/13 05:38:33;;;;;;;4.37;3.97;;;16.10;99.90;;;;;;5315880;26;20467;-73
2024/04/13 05:40:59;;;;;;;12.43;4.87;;;16.10;99.90;;;;;;5310349;26;20474;-73
2024/04/13 05:43:31;;;;;;;5.60;3.67;;;16.20;99.90;;;;;;5320754;26;20539;-73
2024/04/13 05:45:57;;;;;;;8.17;4.43;;;16.30;99.90;;;;;;5310619;26;20292;-73
2024/04/13 05:48:25;;;;;;;4.30;3.60;;;16.40;99.90;;;;;;5317757;26;20594;-73
2024/04/13 05:50:52;;;;;;;5.57;3.50;;;16.40;99.90;;;;;;5309978;26;20560;-73
2024/04/13 05:53:21;;;;;;;8.47;4.13;;;16.40;99.90;;;;;;5308421;26;20530;-73
2024/04/13 05:55:47;;;;;;;7.30;3.80;;;16.40;99.90;;;;;;5304550;26;21051;-73
2024/04/13 05:58:15;;;;;;;7.40;4.30;;;16.50;99.90;;;;;;5307806;26;20614;-73
2024/04/13 06:00:44;;;;;;;7.57;3.83;;;16.60;99.90;;;;;;5311038;26;20755;-73
2024/04/13 06:03:12;;;;;;;4.97;3.53;;;16.80;99.90;;;;;;5310231;26;20543;-73
2024/04/13 06:05:40;;;;;;;6.50;4.33;;;16.90;99.90;;;;;;5315969;26;20687;-73
2024/04/13 06:08:09;;;;;;;7.80;4.77;;;16.90;99.90;;;;;;5305239;26;20464;-74
2024/04/13 06:10:35;;;;;;;4.37;3.60;;;17.00;99.90;;;;;;5289397;26;20550;-73
2024/04/13 06:13:03;;;;;;;4.70;4.07;;;17.20;99.90;;;;;;5300440;26;20507;-73
2024/04/13 06:15:29;;;;;;;4.07;3.50;;;17.40;99.90;;;;;;5308537;26;20772;-73
2024/04/13 06:18:00;;;;;;;8.13;4.10;;;17.40;99.90;;;;;;5306654;26;20488;-74
2024/04/13 06:20:26;;;;;;;7.30;4.33;;;17.50;99.90;;;;;;5315615;26;20713;-73
2024/04/13 06:22:54;;;;;;;7.67;4.03;;;17.60;99.90;;;;;;5314519;26;20525;-74
2024/04/13 06:25:20;;;;;;;10.50;4.57;;;17.70;99.90;;;;;;5313634;26;20404;-73
2024/04/13 06:27:49;;;;;;;4.00;3.00;;;17.80;99.90;;;;;;5291536;26;20961;-73
2024/04/13 06:30:15;;;;;;;5.37;3.53;;;18.00;99.90;;;;;;5306831;26;20709;-73
2024/04/13 06:32:43;;;;;;;3.90;3.50;;;18.10;99.90;;;;;;5306004;26;20514;-74
2024/04/13 06:35:12;;;;;;;7.60;3.90;;;18.10;99.90;;;;;;5313591;26;20627;-74
2024/04/13 06:37:40;;;;;;;4.30;3.50;;;18.20;99.90;;;;;;5303953;26;20508;-73
2024/04/13 06:40:07;;;;;;;8.60;4.67;;;18.50;99.90;;;;;;5309621;26;20475;-73
2024/04/13 06:42:36;;;;;;;4.87;3.53;;;18.70;99.90;;;;;;5306462;26;20498;-72
2024/04/13 06:45:02;;;;;;;7.27;4.77;;;18.80;99.90;;;;;;5312704;26;20532;-72
2024/04/13 06:47:31;;;;;;;5.03;3.60;;;19.00;99.90;;;;;;5325286;26;20479;-72
2024/04/13 06:49:56;;;;;;;7.10;3.90;;;19.20;99.90;;;;;;5309911;26;20550;-73
2024/04/13 06:52:27;;;;;;;5.33;3.70;;;19.30;99.90;;;;;;5309943;26;20670;-72
2024/04/13 06:54:53;;;;;;;5.87;4.67;;;19.40;99.90;;;;;;5315006;26;20245;-73
2024/04/13 06:57:21;;;;;;;5.30;3.00;;;19.50;99.90;;;;;;5319202;26;20954;-72
2024/04/13 06:59:47;;;;;;;8.27;4.60;;;19.50;99.90;;;;;;5329507;26;20300;-72
2024/04/13 07:02:16;;;;;;;6.50;4.07;;;19.50;99.90;;;;;;5316529;26;20478;-73
2024/04/13 07:04:41;;;;;;;6.40;3.60;;;19.60;99.90;;;;;;5320572;26;20317;-73
2024/04/13 07:07:10;;;;;;;4.13;3.67;;;19.60;99.90;;;;;;5326401;26;20488;-72
2024/04/13 07:09:38;;;;;;;5.90;4.30;;;19.80;99.90;;;;;;5317324;26;20757;-73
2024/04/13 07:12:08;;;;;;;6.00;3.97;;;19.90;99.90;;;;;;5316632;26;20527;-72
2024/04/13 07:14:34;;;;;;;5.80;4.07;;;20.00;99.90;;;;;;5315224;26;20506;-72
2024/04/13 07:17:02;;;;;;;6.10;3.77;;;20.00;99.90;;;;;;5322696;26;20889;-72
2024/04/13 07:19:28;;;;;;;7.73;4.73;;;19.80;99.90;;;;;;5313839;26;20252;-74
2024/04/13 07:21:56;;;;;;;4.87;3.80;;;19.70;99.90;;;;;;5309438;26;21196;-73
2024/04/13 07:24:22;;;;;;;4.70;3.50;;;19.80;99.90;;;;;;5306714;26;20934;-73
2024/04/13 07:26:53;;;;;;;6.27;3.13;;;19.90;99.90;;;;;;5310570;26;20497;-74
2024/04/13 07:29:19;;;;;;;5.60;3.60;;;20.00;99.90;;;;;;5306652;26;20242;-73
2024/04/13 07:31:48;;;;;;;7.03;4.23;;;20.30;99.90;;;;;;5301707;26;20487;-73
2024/04/13 07:34:14;;;;;;;5.10;4.67;;;20.60;99.90;;;;;;5301902;26;20478;-71
2024/04/13 07:36:42;;;;;;;8.70;3.90;;;20.50;99.90;;;;;;5314153;26;21163;-71
2024/04/13 07:39:08;;;;;;;6.07;4.23;;;20.70;99.90;;;;;;5308537;26;20276;-69
2024/04/13 07:41:36;;;;;;;5.70;3.63;;;20.90;99.90;;;;;;5320358;26;20475;-70
2024/04/13 07:44:05;;;;;;;6.70;3.60;;;21.00;99.90;;;;;;5330796;26;20782;-70
2024/04/13 07:46:34;;;;;;;4.13;3.00;;;20.90;99.90;;;;;;5318644;26;20462;-71
2024/04/13 07:49:00;;;;;;;5.80;3.60;;;21.00;99.90;;;;;;5321350;26;20484;-70
2024/04/13 07:51:28;;;;;;;10.07;4.43;;;21.10;99.90;;;;;;5317398;26;20613;-70
2024/04/13 07:53:54;;;;;;;5.67;3.27;;;21.10;99.90;;;;;;5312746;26;20248;-70
2024/04/13 07:56:23;;;;;;;6.00;3.73;;;21.10;99.90;;;;;;5308236;26;21048;-70
2024/04/13 07:58:49;;;;;;;3.33;2.50;;;21.30;99.90;;;;;;5312983;26;20248;-70
2024/04/13 08:01:20;;;;;;;9.30;4.50;;;21.40;99.90;;;;;;5315062;26;20476;-72
2024/04/13 08:03:46;;;;;;;7.40;3.67;;;21.20;99.90;;;;;;5309820;26;20555;-72
2024/04/13 08:06:14;;;;;;;5.23;3.60;;;21.30;99.90;;;;;;5316306;26;20561;-69
2024/04/13 08:08:40;;;;;;;3.87;3.57;;;21.40;99.90;;;;;;5316557;26;20242;-71
2024/04/13 08:11:10;;;;;;;4.00;3.40;;;21.60;99.90;;;;;;5315225;26;20535;-70
2024/04/13 08:13:36;;;;;;;4.60;3.10;;;22.00;99.90;;;;;;5314391;26;20801;-71
2024/04/13 08:16:06;;;;;;;6.33;4.10;;;22.40;99.90;;;;;;5313730;26;20547;-71
2024/04/13 08:18:34;;;;;;;3.40;3.10;;;22.90;99.90;;;;;;5326515;26;20241;-70
2024/04/13 08:21:03;;;;;;;5.13;4.50;;;23.40;99.90;;;;;;5308627;26;20474;-74
2024/04/13 08:23:29;;;;;;;13.23;3.33;;;23.70;99.90;;;;;;5310600;26;20463;-73
2024/04/13 08:26:03;;;;;;;4.67;3.10;;;23.70;99.90;;;;;;5317792;26;20675;-70
2024/04/13 08:28:32;;;;;;;13.23;4.20;;;24.00;99.90;;;;;;5312942;26;20265;-74
2024/04/13 08:31:05;;;;;;;6.60;3.87;;;23.60;99.90;;;;;;5304611;26;20619;-71
2024/04/13 08:33:34;;;;;;;3.00;2.20;;;24.10;99.90;;;;;;5310672;26;20621;-70
2024/04/13 08:36:08;;;;;;;5.10;3.13;;;24.30;99.90;;;;;;5313741;26;20484;-71
2024/04/13 08:38:34;;;;;;;5.30;3.10;;;24.80;99.90;;;;;;5310837;26;20483;-71
2024/04/13 08:41:05;;;;;;;5.13;3.10;;;25.10;99.90;;;;;;5321128;26;20487;-71
2024/04/13 08:43:31;;;;;;;7.30;3.40;;;25.00;99.90;;;;;;5314076;26;21146;-71
2024/04/13 08:46:07;;;;;;;9.43;3.70;;;24.20;99.90;;;;;;5312132;26;20474;-72
2024/04/13 08:48:38;;;;;;;7.00;2.93;;;24.20;99.90;;;;;;5301260;21;20580;-71
2024/04/13 08:51:09;;;;;;;7.03;3.73;;;24.10;99.90;;;;;;5282813;26;20933;-71
2024/04/13 08:53:36;;;;;;;3.40;3.10;;;24.10;99.90;;;;;;5243751;27;20490;-71
2024/04/13 08:56:06;;;;;;;5.30;2.90;;;24.10;99.90;;;;;;5255368;27;20474;-71
2024/04/13 08:58:34;;;;;;;7.43;3.60;;;23.90;99.90;;;;;;5255156;27;20612;-71
2024/04/13 09:01:04;;;;;;;3.20;2.60;;;23.80;99.90;;;;;;5255920;27;20509;-70
2024/04/13 09:03:33;;;;;;;5.00;2.97;;;23.70;99.90;;;;;;5264665;27;21245;-71
2024/04/13 09:06:06;;;;;;;4.60;3.63;;;23.70;99.90;;;;;;5266741;27;23565;-70
2024/04/13 09:08:33;;;;;;;3.70;3.03;;;24.10;99.90;;;;;;5252925;27;21089;-71
2024/04/13 09:11:08;;;;;;;3.70;3.40;;;24.30;99.90;;;;;;5251095;27;21079;-71
2024/04/13 09:13:35;;;;;;;3.73;2.93;;;24.40;99.90;;;;;;5244845;27;20648;-72
2024/04/13 09:16:06;;;;;;;4.77;2.90;;;24.20;99.90;;;;;;5258218;27;20478;-70
2024/04/13 09:18:32;;;;;;;4.43;2.37;;;24.00;99.90;;;;;;5247550;27;21226;-70
2024/04/13 09:21:07;;;;;;;5.30;3.63;;;23.70;99.90;;;;;;5254701;27;20486;-70
2024/04/13 09:23:34;;;;;;;5.07;3.53;;;23.70;99.90;;;;;;5248104;27;20538;-70
2024/04/13 09:26:03;;;;;;;4.63;3.03;;;23.80;99.90;;;;;;5258533;27;20589;-71
2024/04/13 09:28:38;;;;;;;5.60;3.57;;;24.10;99.90;;;;;;5241404;27;20611;-72
2024/04/13 09:31:07;;;;;;;3.77;3.00;;;24.90;99.90;;;;;;5252513;27;20634;-71
2024/04/13 09:33:32;;;;;;;4.63;2.60;;;25.40;99.90;;;;;;5240700;27;20482;-70
2024/04/13 09:36:01;;;;;;;4.07;3.27;;;25.40;99.90;;;;;;5246656;27;20551;-71
2024/04/13 09:38:29;;;;;;;3.77;2.57;;;25.50;99.90;;;;;;5240885;27;20247;-71
2024/04/13 09:40:59;;;;;;;4.93;3.17;;;25.50;99.90;;;;;;5247357;27;20489;-72
2024/04/13 09:43:25;;;;;;;5.27;2.97;;;25.60;99.90;;;;;;5249030;27;20533;-71
2024/04/13 09:45:59;;;;;;;5.97;3.00;;;25.90;99.90;;;;;;5258922;27;20635;-71
2024/04/13 09:48:25;;;;;;;5.00;4.60;;;25.80;99.90;;;;;;5242910;27;21035;-71
2024/04/13 09:50:53;;;;;;;3.83;3.10;;;25.80;99.90;;;;;;5247650;27;20474;-72
2024/04/13 09:53:22;;;;;;;3.83;2.60;;;25.90;99.90;;;;;;5239981;27;20549;-71
2024/04/13 09:55:53;;;;;;;3.60;2.50;;;25.50;99.90;;;;;;5246080;27;20471;-71
2024/04/13 09:58:20;;;;;;;2.70;2.40;;;25.40;99.90;;;;;;5243066;27;20498;-71
2024/04/13 10:00:50;;;;;;;2.97;2.40;;;25.40;99.90;;;;;;5240087;27;21264;-71
2024/04/13 10:03:16;;;;;;;4.40;2.27;;;25.70;99.90;;;;;;5245855;27;20501;-70
2024/04/13 10:05:46;;;;;;;6.13;2.47;;;25.10;99.90;;;;;;5243726;27;21054;-73
2024/04/13 10:08:13;;;;;;;7.40;2.50;;;25.10;99.90;;;;;;5233649;27;20478;-71
2024/04/13 10:10:44;;;;;;;5.47;2.90;;;25.30;99.90;;;;;;5243055;27;20526;-71
2024/04/13 10:13:16;;;;;;;3.40;3.07;;;25.60;99.90;;;;;;5248782;27;20632;-71
2024/04/13 10:15:45;;;;;;;5.73;2.80;;;25.70;99.90;;;;;;5247768;27;20494;-71
2024/04/13 10:18:11;;;;;;;4.23;2.30;;;26.00;99.90;;;;;;5254656;27;21100;-71
2024/04/13 10:20:40;;;;;;;5.03;2.80;;;26.10;99.90;;;;;;5241002;27;20502;-71
2024/04/13 10:23:10;;;;;;;3.93;2.23;;;26.60;99.90;;;;;;5229607;27;21008;-71
2024/04/13 10:25:38;;;;;;;3.63;2.43;;;27.20;99.90;;;;;;5246823;27;25283;-71
2024/04/13 10:28:06;;;;;;;3.20;2.90;;;27.50;99.90;;;;;;5248688;27;20545;-71
2024/04/13 10:30:50;;;;;;;4.47;2.60;;;27.00;99.90;;;;;;5239800;27;20845;-71
2024/04/13 10:33:18;;;;;;;4.03;1.90;;;26.80;99.90;;;;;;5240681;27;20621;-71
2024/04/13 10:35:54;;;;;;;3.40;2.33;;;27.00;99.90;;;;;;5237752;27;20561;-70
2024/04/13 10:38:20;;;;;;;3.57;2.60;;;26.90;99.90;;;;;;5236537;27;20536;-70
2024/04/13 10:40:48;;;;;;;5.20;2.90;;;26.80;99.90;;;;;;5236066;27;21314;-72
2024/04/13 10:43:18;;;;;;;6.80;3.60;;;27.00;99.90;;;;;;5244586;27;20376;-70
2024/04/13 10:45:53;;;;;;;4.90;3.03;;;27.30;99.90;;;;;;5232362;27;20483;-71
2024/04/13 10:48:19;;;;;;;4.77;2.60;;;27.30;99.90;;;;;;5251095;27;20481;-70
2024/04/13 10:50:48;;;;;;;3.17;2.73;;;27.60;99.90;;;;;;5249418;27;20596;-71
2024/04/13 10:53:14;;;;;;;6.70;3.43;;;27.10;99.90;;;;;;5252658;27;20594;-71
2024/04/13 10:55:43;;;;;;;5.77;3.17;;;27.40;99.90;;;;;;5249963;27;20477;-71
2024/04/13 10:58:10;;;;;;;4.70;2.73;;;28.20;99.90;;;;;;5257328;27;20517;-70
2024/04/13 11:00:38;;;;;;;5.63;2.43;;;28.80;99.90;;;;;;5257095;27;20580;-71
2024/04/13 11:03:07;;;;;;;6.47;2.87;;;29.10;99.90;;;;;;5247155;27;20526;-71
2024/04/13 11:05:35;;;;;;;3.83;2.23;;;29.40;99.90;;;;;;5260428;27;21076;-71
2024/04/13 11:08:01;;;;;;;5.93;2.03;;;29.80;99.90;;;;;;5257500;27;20554;-71
2024/04/13 11:10:30;;;;;;;3.27;2.90;;;29.90;99.90;;;;;;5248814;27;20478;-71
2024/04/13 11:12:56;;;;;;;4.13;2.30;;;29.40;99.90;;;;;;5244643;27;20243;-71
2024/04/13 11:15:24;;;;;;;5.10;2.97;;;29.30;99.90;;;;;;5251590;27;20618;-71
2024/04/13 11:17:50;;;;;;;4.73;3.27;;;28.90;99.90;;;;;;5243360;27;20251;-71
2024/04/13 11:20:21;;;;;;;4.50;2.67;;;29.40;99.90;;;;;;5251587;27;21012;-71
2024/04/13 11:22:47;;;;;;;7.13;2.87;;;29.90;99.90;;;;;;5243258;27;20255;-71
2024/04/13 11:25:17;;;;;;;8.70;3.00;;;29.20;99.90;;;;;;5248139;27;21594;-72
2024/04/13 11:27:43;;;;;;;5.20;3.00;;;28.40;99.90;;;;;;5253926;27;20396;-71
2024/04/13 11:30:12;;;;;;;6.37;3.07;;;28.30;99.90;;;;;;5249264;27;20525;-70
2024/04/13 11:32:38;;;;;;;5.40;3.13;;;28.30;99.90;;;;;;5231049;27;20597;-70
2024/04/13 11:35:14;;;;;;;3.07;2.27;;;27.90;99.90;;;;;;5251664;27;22063;-71
2024/04/13 11:37:53;;;;;;;7.23;3.10;;;27.50;99.90;;;;;;5253147;27;20285;-70
2024/04/13 11:40:22;;;;;;;5.40;2.87;;;27.50;99.90;;;;;;5253914;27;20550;-71
2024/04/13 11:42:48;;;;;;;4.80;2.30;;;27.70;99.90;;;;;;5255469;27;20650;-70
2024/04/13 11:45:17;;;;;;;5.70;2.87;;;28.20;99.90;;;;;;5258145;27;20526;-70
2024/04/13 11:47:43;;;;;;;10.83;2.87;;;28.10;99.90;;;;;;5258690;27;20497;-70
2024/04/13 11:50:11;;;;;;;4.20;2.97;;;27.80;99.90;;;;;;5257974;27;20522;-70
2024/04/13 11:52:37;;;;;;;4.37;2.37;;;27.70;99.90;;;;;;5253756;27;20599;-71
2024/04/13 11:55:09;;;;;;;3.77;2.70;;;28.20;99.90;;;;;;5247085;27;20496;-70
2024/04/13 11:57:44;;;;;;;3.70;2.80;;;28.50;99.90;;;;;;5252560;27;20239;-70
2024/04/13 12:00:13;;;;;;;6.00;2.57;;;28.70;99.90;;;;;;5248550;27;20469;-70
2024/04/13 12:02:39;;;;;;;4.83;2.87;;;28.80;99.90;;;;;;5247303;27;20493;-71
2024/04/13 12:05:08;;;;;;;4.17;2.57;;;29.30;99.90;;;;;;5260364;27;20541;-72
2024/04/13 12:07:34;;;;;;;3.40;2.13;;;29.20;99.90;;;;;;5256619;27;20345;-71
2024/04/13 12:10:02;;;;;;;3.73;2.07;;;29.10;99.90;;;;;;5260176;27;20553;-70
2024/04/13 12:12:31;;;;;;;3.60;2.53;;;29.20;99.90;;;;;;5251608;27;20490;-70
2024/04/13 12:14:59;;;;;;;2.90;2.17;;;29.50;99.90;;;;;;5251632;27;20484;-70
2024/04/13 12:17:25;;;;;;;3.13;2.37;;;29.70;99.90;;;;;;5256294;27;20591;-70
2024/04/13 12:19:54;;;;;;;6.10;2.40;;;29.80;99.90;;;;;;5255093;27;20691;-70
2024/04/13 12:22:20;;;;;;;7.90;2.80;;;29.30;99.90;;;;;;5258142;27;20481;-72
2024/04/13 12:24:48;;;;;;;3.80;2.40;;;29.20;99.90;;;;;;5256469;27;20624;-72
2024/04/13 12:27:14;;;;;;;2.07;1.87;;;29.70;99.90;;;;;;5254365;27;20255;-71
2024/04/13 12:29:46;;;;;;;5.27;2.60;;;29.80;99.90;;;;;;5255859;27;20466;-71
2024/04/13 12:32:11;;;;;;;4.90;2.77;;;29.30;99.90;;;;;;5259685;27;20587;-71
2024/04/13 12:34:42;;;;;;;7.13;2.70;;;29.50;99.90;;;;;;5259201;27;20526;-71
2024/04/13 12:37:08;;;;;;;2.37;2.17;;;29.20;99.90;;;;;;5262756;27;20374;-71
2024/04/13 12:39:36;;;;;;;5.90;2.30;;;29.00;99.90;;;;;;5246000;27;20480;-70
2024/04/13 12:42:03;;;;;;;2.57;1.80;;;29.50;99.90;;;;;;5251121;27;20576;-73
2024/04/13 12:44:32;;;;;;;6.00;2.17;;;30.20;99.90;;;;;;5261374;27;20565;-71
2024/04/13 12:47:01;;;;;;;8.23;2.53;;;30.60;99.60;;;;;;5270154;27;20607;-73
2024/04/13 12:49:29;;;;;;;2.60;2.13;;;29.90;99.90;;;;;;5266843;27;20524;-70